sensor_id;sensor_type;location;lat;lon;timestamp;P1;durP1;ratioP1;P2;durP2;ratioP2
2728;SDS011;1372;47.956;7.830;2024-03-02T00:02:07;1.10;;;1.00;;
2728;SDS011;1372;47.956;7.830;2024-03-02T00:04:39;2.13;;;1.87;;
2728;SDS011;1372;47.956;7.830;2024-03-02T00:07:08;1.60;;;1.30;;
2728;SDS011;1372;47.956;7.830;2024-03-02T00:09:37;3.00;;;1.10;;
2728;SDS011;1372;47.956;7.830;2024-03-02T00:12:10;1.90;;;1.17;;
2728;SDS011;1372;47.956;7.830;2024-03-02T00:14:44;1.60;;;1.50;;
2728;SDS011;1372;47.956;7.830;2024-03-02T00:17:16;1.10;;;1.00;;
2728;SDS011;1372;47.956;7.830;2024-03-02T00:19:55;1.33;;;1.17;;
2728;SDS011;1372;47.956;7.830;2024-03-02T00:22:25;1.30;;;1.20;;
2728;SDS011;1372;47.956;7.830;2024-03-02T00:24:55;1.77;;;1.60;;
2728;SDS011;1372;47.956;7.830;2024-03-02T00:27:25;1.23;;;1.13;;
2728;SDS011;1372;47.956;7.830;2024-03-02T00:29:57;1.50;;;0.97;;
2728;SDS011;1372;47.956;7.830;2024-03-02T00:32:28;1.00;;;0.87;;
2728;SDS011;1372;47.956;7.830;2024-03-02T00:35:04;0.87;;;0.87;;
2728;SDS011;1372;47.956;7.830;2024-03-02T00:37:34;1.13;;;1.03;;
2728;SDS011;1372;47.956;7.830;2024-03-02T00:40:03;1.03;;;1.03;;
2728;SDS011;1372;47.956;7.830;2024-03-02T00:42:36;3.43;;;1.80;;
2728;SDS011;1372;47.956;7.830;2024-03-02T00:45:05;1.40;;;1.30;;
2728;SDS011;1372;47.956;7.830;2024-03-02T00:47:37;2.67;;;1.87;;
2728;SDS011;1372;47.956;7.830;2024-03-02T00:50:07;1.63;;;1.50;;
2728;SDS011;1372;47.956;7.830;2024-03-02T00:52:42;2.47;;;1.27;;
2728;SDS011;1372;47.956;7.830;2024-03-02T00:55:12;1.00;;;0.90;;
2728;SDS011;1372;47.956;7.830;2024-03-02T00:57:42;1.50;;;1.30;;
2728;SDS011;1372;47.956;7.830;2024-03-02T01:00:12;1.17;;;1.17;;
2728;SDS011;1372;47.956;7.830;2024-03-02T01:02:44;1.30;;;1.20;;
2728;SDS011;1372;47.956;7.830;2024-03-02T01:05:14;1.40;;;0.90;;
2728;SDS011;1372;47.956;7.830;2024-03-02T01:07:45;1.03;;;0.93;;
2728;SDS011;1372;47.956;7.830;2024-03-02T01:10:15;2.67;;;0.97;;
2728;SDS011;1372;47.956;7.830;2024-03-02T01:12:45;1.13;;;0.90;;
2728;SDS011;1372;47.956;7.830;2024-03-02T01:15:14;1.40;;;0.90;;
2728;SDS011;1372;47.956;7.830;2024-03-02T01:17:43;1.33;;;1.23;;
2728;SDS011;1372;47.956;7.830;2024-03-02T01:20:12;1.13;;;0.90;;
2728;SDS011;1372;47.956;7.830;2024-03-02T01:22:41;0.83;;;0.83;;
2728;SDS011;1372;47.956;7.830;2024-03-02T01:25:10;1.33;;;0.70;;
2728;SDS011;1372;47.956;7.830;2024-03-02T01:27:40;1.37;;;0.90;;
2728;SDS011;1372;47.956;7.830;2024-03-02T01:30:11;2.50;;;0.77;;
2728;SDS011;1372;47.956;7.830;2024-03-02T01:32:40;1.13;;;0.93;;
2728;SDS011;1372;47.956;7.830;2024-03-02T01:35:10;0.70;;;0.70;;
2728;SDS011;1372;47.956;7.830;2024-03-02T01:37:38;0.80;;;0.80;;
2728;SDS011;1372;47.956;7.830;2024-03-02T01:40:08;0.53;;;0.53;;
2728;SDS011;1372;47.956;7.830;2024-03-02T01:42:41;1.50;;;0.90;;
2728;SDS011;1372;47.956;7.830;2024-03-02T01:45:13;2.33;;;0.83;;
2728;SDS011;1372;47.956;7.830;2024-03-02T01:47:43;0.90;;;0.90;;
2728;SDS011;1372;47.956;7.830;2024-03-02T01:50:12;0.83;;;0.80;;
2728;SDS011;1372;47.956;7.830;2024-03-02T01:52:44;0.80;;;0.77;;
2728;SDS011;1372;47.956;7.830;2024-03-02T01:55:13;0.83;;;0.83;;
2728;SDS011;1372;47.956;7.830;2024-03-02T01:57:42;0.67;;;0.67;;
2728;SDS011;1372;47.956;7.830;2024-03-02T02:00:13;0.73;;;0.73;;
2728;SDS011;1372;47.956;7.830;2024-03-02T02:02:43;0.60;;;0.60;;
2728;SDS011;1372;47.956;7.830;2024-03-02T02:05:15;2.50;;;0.83;;
2728;SDS011;1372;47.956;7.830;2024-03-02T02:07:46;0.67;;;0.67;;
2728;SDS011;1372;47.956;7.830;2024-03-02T02:10:15;2.00;;;1.20;;
2728;SDS011;1372;47.956;7.830;2024-03-02T02:12:44;0.70;;;0.70;;
2728;SDS011;1372;47.956;7.830;2024-03-02T02:15:34;0.83;;;0.60;;
2728;SDS011;1372;47.956;7.830;2024-03-02T02:18:04;2.10;;;0.70;;
2728;SDS011;1372;47.956;7.830;2024-03-02T02:20:33;0.93;;;0.80;;
2728;SDS011;1372;47.956;7.830;2024-03-02T02:23:06;1.10;;;0.80;;
2728;SDS011;1372;47.956;7.830;2024-03-02T02:25:39;1.20;;;1.10;;
2728;SDS011;1372;47.956;7.830;2024-03-02T02:28:08;2.43;;;1.13;;
2728;SDS011;1372;47.956;7.830;2024-03-02T02:30:37;0.60;;;0.60;;
2728;SDS011;1372;47.956;7.830;2024-03-02T02:33:06;0.90;;;0.80;;
2728;SDS011;1372;47.956;7.830;2024-03-02T02:35:36;0.87;;;0.80;;
2728;SDS011;1372;47.956;7.830;2024-03-02T02:38:06;0.80;;;0.80;;
2728;SDS011;1372;47.956;7.830;2024-03-02T02:40:36;0.73;;;0.73;;
2728;SDS011;1372;47.956;7.830;2024-03-02T02:43:05;0.90;;;0.90;;
2728;SDS011;1372;47.956;7.830;2024-03-02T02:45:35;1.20;;;0.60;;
2728;SDS011;1372;47.956;7.830;2024-03-02T02:48:05;0.60;;;0.60;;
2728;SDS011;1372;47.956;7.830;2024-03-02T02:50:34;2.40;;;1.03;;
2728;SDS011;1372;47.956;7.830;2024-03-02T02:53:03;1.27;;;1.07;;
2728;SDS011;1372;47.956;7.830;2024-03-02T02:55:35;2.23;;;0.90;;
2728;SDS011;1372;47.956;7.830;2024-03-02T02:58:07;1.10;;;0.87;;
2728;SDS011;1372;47.956;7.830;2024-03-02T03:00:36;0.50;;;0.50;;
2728;SDS011;1372;47.956;7.830;2024-03-02T03:03:04;0.60;;;0.60;;
2728;SDS011;1372;47.956;7.830;2024-03-02T03:05:34;0.90;;;0.80;;
2728;SDS011;1372;47.956;7.830;2024-03-02T03:08:03;1.10;;;1.00;;
2728;SDS011;1372;47.956;7.830;2024-03-02T03:10:34;0.77;;;0.77;;
2728;SDS011;1372;47.956;7.830;2024-03-02T03:13:06;0.47;;;0.47;;
2728;SDS011;1372;47.956;7.830;2024-03-02T03:15:35;0.50;;;0.50;;
2728;SDS011;1372;47.956;7.830;2024-03-02T03:18:05;0.53;;;0.53;;
2728;SDS011;1372;47.956;7.830;2024-03-02T03:20:37;0.87;;;0.50;;
2728;SDS011;1372;47.956;7.830;2024-03-02T03:23:06;0.70;;;0.70;;
2728;SDS011;1372;47.956;7.830;2024-03-02T03:25:41;0.80;;;0.50;;
2728;SDS011;1372;47.956;7.830;2024-03-02T03:28:12;0.80;;;0.70;;
2728;SDS011;1372;47.956;7.830;2024-03-02T03:30:41;1.27;;;0.60;;
2728;SDS011;1372;47.956;7.830;2024-03-02T03:33:14;0.90;;;0.60;;
2728;SDS011;1372;47.956;7.830;2024-03-02T03:35:43;0.40;;;0.40;;
2728;SDS011;1372;47.956;7.830;2024-03-02T03:38:12;0.50;;;0.50;;
2728;SDS011;1372;47.956;7.830;2024-03-02T03:40:43;0.93;;;0.70;;
2728;SDS011;1372;47.956;7.830;2024-03-02T03:43:14;0.60;;;0.60;;
2728;SDS011;1372;47.956;7.830;2024-03-02T03:45:45;0.53;;;0.53;;
2728;SDS011;1372;47.956;7.830;2024-03-02T03:48:14;0.90;;;0.50;;
2728;SDS011;1372;47.956;7.830;2024-03-02T03:50:43;0.33;;;0.33;;
2728;SDS011;1372;47.956;7.830;2024-03-02T03:53:12;0.47;;;0.47;;
2728;SDS011;1372;47.956;7.830;2024-03-02T03:55:42;0.67;;;0.67;;
2728;SDS011;1372;47.956;7.830;2024-03-02T03:58:13;0.60;;;0.60;;
2728;SDS011;1372;47.956;7.830;2024-03-02T04:00:45;0.60;;;0.50;;
2728;SDS011;1372;47.956;7.830;2024-03-02T04:03:14;0.50;;;0.50;;
2728;SDS011;1372;47.956;7.830;2024-03-02T04:05:43;0.53;;;0.53;;
2728;SDS011;1372;47.956;7.830;2024-03-02T04:08:11;0.53;;;0.50;;
2728;SDS011;1372;47.956;7.830;2024-03-02T04:10:40;0.60;;;0.50;;
2728;SDS011;1372;47.956;7.830;2024-03-02T04:13:13;1.43;;;0.60;;
2728;SDS011;1372;47.956;7.830;2024-03-02T04:15:42;3.70;;;0.90;;
2728;SDS011;1372;47.956;7.830;2024-03-02T04:18:11;0.70;;;0.40;;
2728;SDS011;1372;47.956;7.830;2024-03-02T04:20:43;0.60;;;0.47;;
2728;SDS011;1372;47.956;7.830;2024-03-02T04:23:12;1.53;;;0.47;;
2728;SDS011;1372;47.956;7.830;2024-03-02T04:25:43;0.70;;;0.50;;
2728;SDS011;1372;47.956;7.830;2024-03-02T04:28:12;0.87;;;0.50;;
2728;SDS011;1372;47.956;7.830;2024-03-02T04:30:43;0.67;;;0.60;;
2728;SDS011;1372;47.956;7.830;2024-03-02T04:33:12;0.50;;;0.50;;
2728;SDS011;1372;47.956;7.830;2024-03-02T04:35:41;0.73;;;0.73;;
2728;SDS011;1372;47.956;7.830;2024-03-02T04:38:10;0.60;;;0.47;;
2728;SDS011;1372;47.956;7.830;2024-03-02T04:40:39;0.47;;;0.47;;
2728;SDS011;1372;47.956;7.830;2024-03-02T04:43:09;0.93;;;0.47;;
2728;SDS011;1372;47.956;7.830;2024-03-02T04:45:42;0.80;;;0.60;;
2728;SDS011;1372;47.956;7.830;2024-03-02T04:48:11;0.40;;;0.40;;
2728;SDS011;1372;47.956;7.830;2024-03-02T04:50:41;1.90;;;0.50;;
2728;SDS011;1372;47.956;7.830;2024-03-02T04:53:10;2.33;;;0.47;;
2728;SDS011;1372;47.956;7.830;2024-03-02T04:55:39;0.63;;;0.63;;
2728;SDS011;1372;47.956;7.830;2024-03-02T04:58:38;0.50;;;0.50;;
2728;SDS011;1372;47.956;7.830;2024-03-02T05:01:07;0.50;;;0.50;;
2728;SDS011;1372;47.956;7.830;2024-03-02T05:03:36;0.77;;;0.57;;
2728;SDS011;1372;47.956;7.830;2024-03-02T05:06:05;0.40;;;0.40;;
2728;SDS011;1372;47.956;7.830;2024-03-02T05:08:38;0.50;;;0.50;;
2728;SDS011;1372;47.956;7.830;2024-03-02T05:11:09;1.13;;;0.70;;
2728;SDS011;1372;47.956;7.830;2024-03-02T05:13:57;0.90;;;0.60;;
2728;SDS011;1372;47.956;7.830;2024-03-02T05:16:26;0.57;;;0.57;;
2728;SDS011;1372;47.956;7.830;2024-03-02T05:18:55;0.60;;;0.60;;
2728;SDS011;1372;47.956;7.830;2024-03-02T05:21:24;0.80;;;0.60;;
2728;SDS011;1372;47.956;7.830;2024-03-02T05:23:53;0.60;;;0.43;;
2728;SDS011;1372;47.956;7.830;2024-03-02T05:26:22;0.50;;;0.50;;
2728;SDS011;1372;47.956;7.830;2024-03-02T05:28:54;0.63;;;0.63;;
2728;SDS011;1372;47.956;7.830;2024-03-02T05:31:24;0.70;;;0.70;;
2728;SDS011;1372;47.956;7.830;2024-03-02T05:33:53;0.63;;;0.63;;
2728;SDS011;1372;47.956;7.830;2024-03-02T05:36:25;0.70;;;0.70;;
2728;SDS011;1372;47.956;7.830;2024-03-02T05:38:55;0.60;;;0.60;;
2728;SDS011;1372;47.956;7.830;2024-03-02T05:41:28;2.93;;;1.00;;
2728;SDS011;1372;47.956;7.830;2024-03-02T05:43:58;15.97;;;4.73;;
2728;SDS011;1372;47.956;7.830;2024-03-02T05:46:28;9.33;;;3.73;;
2728;SDS011;1372;47.956;7.830;2024-03-02T05:48:57;7.43;;;3.77;;
2728;SDS011;1372;47.956;7.830;2024-03-02T05:51:27;3.03;;;2.00;;
2728;SDS011;1372;47.956;7.830;2024-03-02T05:53:56;2.67;;;1.83;;
2728;SDS011;1372;47.956;7.830;2024-03-02T05:56:24;2.20;;;1.27;;
2728;SDS011;1372;47.956;7.830;2024-03-02T05:58:57;1.60;;;1.07;;
2728;SDS011;1372;47.956;7.830;2024-03-02T06:01:42;2.40;;;1.27;;
2728;SDS011;1372;47.956;7.830;2024-03-02T06:04:13;2.30;;;1.50;;
2728;SDS011;1372;47.956;7.830;2024-03-02T06:06:45;4.27;;;2.40;;
2728;SDS011;1372;47.956;7.830;2024-03-02T06:09:16;12.77;;;6.97;;
2728;SDS011;1372;47.956;7.830;2024-03-02T06:11:50;12.40;;;4.33;;
2728;SDS011;1372;47.956;7.830;2024-03-02T06:14:22;9.77;;;3.80;;
2728;SDS011;1372;47.956;7.830;2024-03-02T06:16:52;4.37;;;2.33;;
2728;SDS011;1372;47.956;7.830;2024-03-02T06:19:23;6.47;;;2.67;;
2728;SDS011;1372;47.956;7.830;2024-03-02T06:21:57;3.87;;;2.07;;
2728;SDS011;1372;47.956;7.830;2024-03-02T06:24:26;12.03;;;5.53;;
2728;SDS011;1372;47.956;7.830;2024-03-02T06:26:55;5.93;;;3.10;;
2728;SDS011;1372;47.956;7.830;2024-03-02T06:29:24;5.07;;;2.33;;
2728;SDS011;1372;47.956;7.830;2024-03-02T06:31:55;3.40;;;2.10;;
2728;SDS011;1372;47.956;7.830;2024-03-02T06:34:24;6.70;;;2.93;;
2728;SDS011;1372;47.956;7.830;2024-03-02T06:36:52;2.03;;;1.73;;
2728;SDS011;1372;47.956;7.830;2024-03-02T06:39:26;7.00;;;3.90;;
2728;SDS011;1372;47.956;7.830;2024-03-02T06:41:54;7.13;;;5.43;;
2728;SDS011;1372;47.956;7.830;2024-03-02T06:44:23;12.30;;;7.03;;
2728;SDS011;1372;47.956;7.830;2024-03-02T06:46:52;3.27;;;2.73;;
2728;SDS011;1372;47.956;7.830;2024-03-02T06:49:22;4.73;;;2.10;;
2728;SDS011;1372;47.956;7.830;2024-03-02T06:51:52;61.23;;;36.23;;
2728;SDS011;1372;47.956;7.830;2024-03-02T06:54:23;47.23;;;27.20;;
2728;SDS011;1372;47.956;7.830;2024-03-02T06:56:52;28.40;;;18.37;;
2728;SDS011;1372;47.956;7.830;2024-03-02T06:59:21;22.43;;;15.47;;
2728;SDS011;1372;47.956;7.830;2024-03-02T07:01:51;22.30;;;12.07;;
2728;SDS011;1372;47.956;7.830;2024-03-02T07:04:25;15.60;;;9.10;;
2728;SDS011;1372;47.956;7.830;2024-03-02T07:06:54;29.53;;;17.33;;
2728;SDS011;1372;47.956;7.830;2024-03-02T07:09:23;42.30;;;24.53;;
2728;SDS011;1372;47.956;7.830;2024-03-02T07:11:52;20.90;;;14.60;;
2728;SDS011;1372;47.956;7.830;2024-03-02T07:14:22;13.93;;;10.57;;
2728;SDS011;1372;47.956;7.830;2024-03-02T07:17:14;38.00;;;22.60;;
2728;SDS011;1372;47.956;7.830;2024-03-02T07:19:44;37.33;;;25.90;;
2728;SDS011;1372;47.956;7.830;2024-03-02T07:22:16;8.83;;;7.93;;
2728;SDS011;1372;47.956;7.830;2024-03-02T07:24:45;7.73;;;6.00;;
2728;SDS011;1372;47.956;7.830;2024-03-02T07:27:18;7.77;;;6.97;;
2728;SDS011;1372;47.956;7.830;2024-03-02T07:29:47;8.50;;;7.60;;
2728;SDS011;1372;47.956;7.830;2024-03-02T07:32:16;8.53;;;7.73;;
2728;SDS011;1372;47.956;7.830;2024-03-02T07:34:46;8.03;;;7.23;;
2728;SDS011;1372;47.956;7.830;2024-03-02T07:37:17;13.57;;;12.13;;
2728;SDS011;1372;47.956;7.830;2024-03-02T07:39:47;8.60;;;7.00;;
2728;SDS011;1372;47.956;7.830;2024-03-02T07:42:17;8.80;;;6.40;;
2728;SDS011;1372;47.956;7.830;2024-03-02T07:44:46;9.50;;;7.37;;
2728;SDS011;1372;47.956;7.830;2024-03-02T07:47:15;9.90;;;8.07;;
2728;SDS011;1372;47.956;7.830;2024-03-02T07:49:44;5.60;;;3.90;;
2728;SDS011;1372;47.956;7.830;2024-03-02T07:52:14;6.80;;;6.10;;
2728;SDS011;1372;47.956;7.830;2024-03-02T07:54:43;10.97;;;6.70;;
2728;SDS011;1372;47.956;7.830;2024-03-02T07:57:13;9.70;;;7.10;;
2728;SDS011;1372;47.956;7.830;2024-03-02T07:59:44;3.80;;;3.20;;
2728;SDS011;1372;47.956;7.830;2024-03-02T08:02:14;3.27;;;2.30;;
2728;SDS011;1372;47.956;7.830;2024-03-02T08:04:43;1.10;;;1.10;;
2728;SDS011;1372;47.956;7.830;2024-03-02T08:07:17;1.90;;;1.80;;
2728;SDS011;1372;47.956;7.830;2024-03-02T08:09:46;1.33;;;1.23;;
2728;SDS011;1372;47.956;7.830;2024-03-02T08:12:17;0.60;;;0.60;;
2728;SDS011;1372;47.956;7.830;2024-03-02T08:14:46;0.80;;;0.80;;
2728;SDS011;1372;47.956;7.830;2024-03-02T08:17:15;1.33;;;1.20;;
2728;SDS011;1372;47.956;7.830;2024-03-02T08:19:44;1.00;;;0.90;;
2728;SDS011;1372;47.956;7.830;2024-03-02T08:22:16;0.90;;;0.90;;
2728;SDS011;1372;47.956;7.830;2024-03-02T08:24:45;0.60;;;0.60;;
2728;SDS011;1372;47.956;7.830;2024-03-02T08:27:15;2.00;;;1.87;;
2728;SDS011;1372;47.956;7.830;2024-03-02T08:29:44;0.53;;;0.53;;
2728;SDS011;1372;47.956;7.830;2024-03-02T08:32:16;0.50;;;0.40;;
2728;SDS011;1372;47.956;7.830;2024-03-02T08:34:46;1.30;;;0.87;;
2728;SDS011;1372;47.956;7.830;2024-03-02T08:37:20;0.73;;;0.73;;
2728;SDS011;1372;47.956;7.830;2024-03-02T08:39:50;1.50;;;0.80;;
2728;SDS011;1372;47.956;7.830;2024-03-02T08:42:19;1.70;;;1.60;;
2728;SDS011;1372;47.956;7.830;2024-03-02T08:44:49;1.33;;;1.10;;
2728;SDS011;1372;47.956;7.830;2024-03-02T08:59:44;0.60;;;0.60;;
2728;SDS011;1372;47.956;7.830;2024-03-02T09:06:41;1.37;;;0.83;;
2728;SDS011;1372;47.956;7.830;2024-03-02T09:22:11;1.57;;;0.80;;
2728;SDS011;1372;47.956;7.830;2024-03-02T09:24:51;1.17;;;1.00;;
2728;SDS011;1372;47.956;7.830;2024-03-02T09:27:20;1.20;;;1.10;;
2728;SDS011;1372;47.956;7.830;2024-03-02T09:29:52;1.93;;;1.83;;
2728;SDS011;1372;47.956;7.830;2024-03-02T09:32:21;1.20;;;1.10;;
2728;SDS011;1372;47.956;7.830;2024-03-02T09:34:53;3.57;;;2.80;;
2728;SDS011;1372;47.956;7.830;2024-03-02T09:37:22;1.47;;;1.37;;
2728;SDS011;1372;47.956;7.830;2024-03-02T09:39:51;9.37;;;6.20;;
2728;SDS011;1372;47.956;7.830;2024-03-02T09:42:21;2.93;;;2.40;;
2728;SDS011;1372;47.956;7.830;2024-03-02T09:44:50;0.80;;;0.80;;
2728;SDS011;1372;47.956;7.830;2024-03-02T09:47:21;0.80;;;0.80;;
2728;SDS011;1372;47.956;7.830;2024-03-02T09:49:50;1.10;;;1.00;;
2728;SDS011;1372;47.956;7.830;2024-03-02T09:52:22;1.00;;;0.90;;
2728;SDS011;1372;47.956;7.830;2024-03-02T09:54:52;1.10;;;1.00;;
2728;SDS011;1372;47.956;7.830;2024-03-02T09:57:21;3.33;;;2.07;;
2728;SDS011;1372;47.956;7.830;2024-03-02T09:59:50;1.57;;;1.30;;
2728;SDS011;1372;47.956;7.830;2024-03-02T10:02:19;6.57;;;4.73;;
2728;SDS011;1372;47.956;7.830;2024-03-02T10:04:48;2.90;;;2.10;;
2728;SDS011;1372;47.956;7.830;2024-03-02T10:07:19;1.87;;;1.77;;
2728;SDS011;1372;47.956;7.830;2024-03-02T10:09:48;1.20;;;1.10;;
2728;SDS011;1372;47.956;7.830;2024-03-02T10:12:18;2.17;;;1.90;;
2728;SDS011;1372;47.956;7.830;2024-03-02T10:14:49;1.70;;;1.60;;
2728;SDS011;1372;47.956;7.830;2024-03-02T10:17:31;2.63;;;1.90;;
2728;SDS011;1372;47.956;7.830;2024-03-02T10:20:00;1.93;;;1.83;;
2728;SDS011;1372;47.956;7.830;2024-03-02T10:22:56;2.30;;;1.80;;
2728;SDS011;1372;47.956;7.830;2024-03-02T10:25:39;1.67;;;1.50;;
2728;SDS011;1372;47.956;7.830;2024-03-02T10:28:13;3.07;;;2.77;;
2728;SDS011;1372;47.956;7.830;2024-03-02T10:30:43;4.07;;;3.43;;
2728;SDS011;1372;47.956;7.830;2024-03-02T10:33:18;1.30;;;1.20;;
2728;SDS011;1372;47.956;7.830;2024-03-02T10:35:48;3.63;;;3.10;;
2728;SDS011;1372;47.956;7.830;2024-03-02T10:38:19;1.80;;;1.60;;
2728;SDS011;1372;47.956;7.830;2024-03-02T10:40:49;4.57;;;3.60;;
2728;SDS011;1372;47.956;7.830;2024-03-02T10:43:18;1.93;;;1.53;;
2728;SDS011;1372;47.956;7.830;2024-03-02T10:45:49;1.80;;;1.70;;
2728;SDS011;1372;47.956;7.830;2024-03-02T10:48:18;2.37;;;1.50;;
2728;SDS011;1372;47.956;7.830;2024-03-02T10:50:48;2.80;;;2.60;;
2728;SDS011;1372;47.956;7.830;2024-03-02T10:53:22;1.80;;;1.30;;
2728;SDS011;1372;47.956;7.830;2024-03-02T10:55:51;1.47;;;1.37;;
2728;SDS011;1372;47.956;7.830;2024-03-02T10:58:31;2.53;;;2.17;;
2728;SDS011;1372;47.956;7.830;2024-03-02T11:01:02;1.20;;;1.03;;
2728;SDS011;1372;47.956;7.830;2024-03-02T11:03:33;0.80;;;0.80;;
2728;SDS011;1372;47.956;7.830;2024-03-02T11:06:06;1.10;;;1.00;;
2728;SDS011;1372;47.956;7.830;2024-03-02T11:08:38;1.23;;;1.10;;
2728;SDS011;1372;47.956;7.830;2024-03-02T11:11:13;2.47;;;1.33;;
2728;SDS011;1372;47.956;7.830;2024-03-02T11:13:47;1.17;;;1.13;;
2728;SDS011;1372;47.956;7.830;2024-03-02T11:16:22;0.90;;;0.83;;
2728;SDS011;1372;47.956;7.830;2024-03-02T11:19:02;1.00;;;0.90;;
2728;SDS011;1372;47.956;7.830;2024-03-02T11:21:33;1.33;;;1.23;;
2728;SDS011;1372;47.956;7.830;2024-03-02T11:27:03;1.23;;;1.13;;
2728;SDS011;1372;47.956;7.830;2024-03-02T11:29:44;2.20;;;2.00;;
2728;SDS011;1372;47.956;7.830;2024-03-02T11:32:17;1.40;;;1.30;;
2728;SDS011;1372;47.956;7.830;2024-03-02T11:34:51;1.20;;;1.10;;
2728;SDS011;1372;47.956;7.830;2024-03-02T11:37:20;1.53;;;1.43;;
2728;SDS011;1372;47.956;7.830;2024-03-02T11:39:51;10.60;;;7.17;;
2728;SDS011;1372;47.956;7.830;2024-03-02T11:42:20;1.70;;;1.60;;
2728;SDS011;1372;47.956;7.830;2024-03-02T11:44:49;1.40;;;1.30;;
2728;SDS011;1372;47.956;7.830;2024-03-02T11:47:18;2.63;;;2.43;;
2728;SDS011;1372;47.956;7.830;2024-03-02T11:49:48;1.33;;;1.07;;
2728;SDS011;1372;47.956;7.830;2024-03-02T11:52:19;3.47;;;3.17;;
2728;SDS011;1372;47.956;7.830;2024-03-02T11:54:48;1.80;;;1.70;;
2728;SDS011;1372;47.956;7.830;2024-03-02T11:57:22;1.63;;;1.53;;
2728;SDS011;1372;47.956;7.830;2024-03-02T11:59:54;2.93;;;2.70;;
2728;SDS011;1372;47.956;7.830;2024-03-02T12:02:27;1.97;;;1.80;;
2728;SDS011;1372;47.956;7.830;2024-03-02T12:04:56;7.00;;;3.23;;
2728;SDS011;1372;47.956;7.830;2024-03-02T12:07:29;3.73;;;2.60;;
2728;SDS011;1372;47.956;7.830;2024-03-02T12:10:00;1.50;;;1.40;;
2728;SDS011;1372;47.956;7.830;2024-03-02T12:12:30;1.20;;;1.00;;
2728;SDS011;1372;47.956;7.830;2024-03-02T12:14:59;1.17;;;1.07;;
2728;SDS011;1372;47.956;7.830;2024-03-02T12:17:30;3.00;;;1.77;;
2728;SDS011;1372;47.956;7.830;2024-03-02T12:19:59;1.27;;;1.10;;
2728;SDS011;1372;47.956;7.830;2024-03-02T12:22:32;2.13;;;1.70;;
2728;SDS011;1372;47.956;7.830;2024-03-02T12:25:03;0.83;;;0.83;;
2728;SDS011;1372;47.956;7.830;2024-03-02T12:27:32;0.70;;;0.70;;
2728;SDS011;1372;47.956;7.830;2024-03-02T12:30:03;1.20;;;1.10;;
2728;SDS011;1372;47.956;7.830;2024-03-02T12:32:37;2.57;;;1.60;;
2728;SDS011;1372;47.956;7.830;2024-03-02T12:35:06;1.73;;;1.30;;
2728;SDS011;1372;47.956;7.830;2024-03-02T12:37:42;0.90;;;0.90;;
2728;SDS011;1372;47.956;7.830;2024-03-02T12:40:15;1.90;;;1.73;;
2728;SDS011;1372;47.956;7.830;2024-03-02T12:42:46;2.20;;;0.60;;
2728;SDS011;1372;47.956;7.830;2024-03-02T12:45:16;0.93;;;0.93;;
2728;SDS011;1372;47.956;7.830;2024-03-02T12:47:51;0.60;;;0.60;;
2728;SDS011;1372;47.956;7.830;2024-03-02T12:50:20;0.70;;;0.50;;
2728;SDS011;1372;47.956;7.830;2024-03-02T12:52:52;0.80;;;0.80;;
2728;SDS011;1372;47.956;7.830;2024-03-02T12:55:23;0.80;;;0.80;;
2728;SDS011;1372;47.956;7.830;2024-03-02T12:57:56;0.50;;;0.50;;
2728;SDS011;1372;47.956;7.830;2024-03-02T13:00:26;2.53;;;1.10;;
2728;SDS011;1372;47.956;7.830;2024-03-02T13:02:57;0.83;;;0.83;;
2728;SDS011;1372;47.956;7.830;2024-03-02T13:05:29;1.20;;;1.10;;
2728;SDS011;1372;47.956;7.830;2024-03-02T13:07:59;1.07;;;0.80;;
2728;SDS011;1372;47.956;7.830;2024-03-02T13:10:32;1.07;;;0.83;;
2728;SDS011;1372;47.956;7.830;2024-03-02T13:13:01;0.90;;;0.90;;
2728;SDS011;1372;47.956;7.830;2024-03-02T13:15:32;2.20;;;1.63;;
2728;SDS011;1372;47.956;7.830;2024-03-02T13:18:09;0.70;;;0.70;;
2728;SDS011;1372;47.956;7.830;2024-03-02T13:20:46;0.80;;;0.80;;
2728;SDS011;1372;47.956;7.830;2024-03-02T13:23:15;4.00;;;1.20;;
2728;SDS011;1372;47.956;7.830;2024-03-02T13:25:46;0.83;;;0.80;;
2728;SDS011;1372;47.956;7.830;2024-03-02T13:28:15;1.30;;;1.20;;
2728;SDS011;1372;47.956;7.830;2024-03-02T13:30:45;3.63;;;3.33;;
2728;SDS011;1372;47.956;7.830;2024-03-02T13:33:14;1.50;;;1.40;;
2728;SDS011;1372;47.956;7.830;2024-03-02T13:35:46;1.40;;;1.30;;
2728;SDS011;1372;47.956;7.830;2024-03-02T13:38:16;1.10;;;1.00;;
2728;SDS011;1372;47.956;7.830;2024-03-02T13:40:48;0.80;;;0.80;;
2728;SDS011;1372;47.956;7.830;2024-03-02T13:43:20;1.70;;;1.57;;
2728;SDS011;1372;47.956;7.830;2024-03-02T13:45:50;3.47;;;3.07;;
2728;SDS011;1372;47.956;7.830;2024-03-02T13:48:20;1.30;;;1.20;;
2728;SDS011;1372;47.956;7.830;2024-03-02T13:50:49;1.17;;;1.07;;
2728;SDS011;1372;47.956;7.830;2024-03-02T13:53:20;1.20;;;1.10;;
2728;SDS011;1372;47.956;7.830;2024-03-02T13:55:53;2.43;;;2.13;;
2728;SDS011;1372;47.956;7.830;2024-03-02T13:58:22;2.60;;;2.20;;
2728;SDS011;1372;47.956;7.830;2024-03-02T14:00:51;10.60;;;9.67;;
2728;SDS011;1372;47.956;7.830;2024-03-02T14:03:20;14.40;;;12.83;;
2728;SDS011;1372;47.956;7.830;2024-03-02T14:05:50;15.80;;;13.50;;
2728;SDS011;1372;47.956;7.830;2024-03-02T14:08:30;21.43;;;19.60;;
2728;SDS011;1372;47.956;7.830;2024-03-02T14:11:02;2.13;;;1.37;;
2728;SDS011;1372;47.956;7.830;2024-03-02T14:13:31;1.10;;;1.00;;
2728;SDS011;1372;47.956;7.830;2024-03-02T14:16:01;1.80;;;1.33;;
2728;SDS011;1372;47.956;7.830;2024-03-02T14:18:30;1.73;;;1.23;;
2728;SDS011;1372;47.956;7.830;2024-03-02T14:20:59;3.03;;;2.90;;
2728;SDS011;1372;47.956;7.830;2024-03-02T14:23:30;2.00;;;1.90;;
2728;SDS011;1372;47.956;7.830;2024-03-02T14:26:00;1.87;;;1.47;;
2728;SDS011;1372;47.956;7.830;2024-03-02T14:28:31;1.43;;;1.33;;
2728;SDS011;1372;47.956;7.830;2024-03-02T14:31:11;2.70;;;1.67;;
2728;SDS011;1372;47.956;7.830;2024-03-02T14:33:41;1.60;;;1.50;;
2728;SDS011;1372;47.956;7.830;2024-03-02T14:36:10;2.50;;;2.07;;
2728;SDS011;1372;47.956;7.830;2024-03-02T14:38:39;2.20;;;1.90;;
2728;SDS011;1372;47.956;7.830;2024-03-02T14:41:10;2.07;;;1.60;;
2728;SDS011;1372;47.956;7.830;2024-03-02T14:43:39;2.90;;;1.43;;
2728;SDS011;1372;47.956;7.830;2024-03-02T14:46:12;1.97;;;1.30;;
2728;SDS011;1372;47.956;7.830;2024-03-02T14:48:41;1.20;;;1.10;;
2728;SDS011;1372;47.956;7.830;2024-03-02T14:51:16;1.70;;;1.50;;
2728;SDS011;1372;47.956;7.830;2024-03-02T14:53:45;1.87;;;1.40;;
2728;SDS011;1372;47.956;7.830;2024-03-02T14:56:16;3.77;;;2.27;;
2728;SDS011;1372;47.956;7.830;2024-03-02T14:58:45;3.37;;;2.63;;
2728;SDS011;1372;47.956;7.830;2024-03-02T15:01:14;2.80;;;2.23;;
2728;SDS011;1372;47.956;7.830;2024-03-02T15:03:44;2.60;;;1.87;;
2728;SDS011;1372;47.956;7.830;2024-03-02T15:06:13;5.70;;;1.77;;
2728;SDS011;1372;47.956;7.830;2024-03-02T15:08:42;1.37;;;1.10;;
2728;SDS011;1372;47.956;7.830;2024-03-02T15:11:13;1.60;;;1.50;;
2728;SDS011;1372;47.956;7.830;2024-03-02T15:13:44;1.30;;;1.20;;
2728;SDS011;1372;47.956;7.830;2024-03-02T15:16:12;1.73;;;1.20;;
2728;SDS011;1372;47.956;7.830;2024-03-02T15:18:42;1.20;;;1.03;;
2728;SDS011;1372;47.956;7.830;2024-03-02T15:21:12;1.27;;;1.17;;
2728;SDS011;1372;47.956;7.830;2024-03-02T15:23:41;1.77;;;1.60;;
2728;SDS011;1372;47.956;7.830;2024-03-02T15:26:12;1.63;;;1.10;;
2728;SDS011;1372;47.956;7.830;2024-03-02T15:28:44;1.80;;;1.30;;
2728;SDS011;1372;47.956;7.830;2024-03-02T15:31:13;1.67;;;1.53;;
2728;SDS011;1372;47.956;7.830;2024-03-02T15:33:46;3.00;;;1.40;;
2728;SDS011;1372;47.956;7.830;2024-03-02T15:36:16;1.70;;;1.60;;
2728;SDS011;1372;47.956;7.830;2024-03-02T15:38:47;2.30;;;1.60;;
2728;SDS011;1372;47.956;7.830;2024-03-02T15:41:17;1.60;;;1.43;;
2728;SDS011;1372;47.956;7.830;2024-03-02T15:43:50;2.00;;;1.40;;
2728;SDS011;1372;47.956;7.830;2024-03-02T15:46:19;2.53;;;1.20;;
2728;SDS011;1372;47.956;7.830;2024-03-02T15:48:48;1.47;;;1.37;;
2728;SDS011;1372;47.956;7.830;2024-03-02T15:51:17;2.37;;;1.50;;
2728;SDS011;1372;47.956;7.830;2024-03-02T15:53:47;1.43;;;1.33;;
2728;SDS011;1372;47.956;7.830;2024-03-02T15:56:16;1.90;;;1.37;;
2728;SDS011;1372;47.956;7.830;2024-03-02T15:58:46;1.50;;;1.37;;
2728;SDS011;1372;47.956;7.830;2024-03-02T16:01:18;2.33;;;1.30;;
2728;SDS011;1372;47.956;7.830;2024-03-02T16:03:53;1.10;;;1.00;;
2728;SDS011;1372;47.956;7.830;2024-03-02T16:06:22;1.17;;;1.07;;
2728;SDS011;1372;47.956;7.830;2024-03-02T16:08:51;1.10;;;1.00;;
2728;SDS011;1372;47.956;7.830;2024-03-02T16:11:22;0.70;;;0.70;;